createdAt,value
2023-04-11T00:00:34.033Z,0.90
2023-04-11T00:03:07.921Z,1.00
2023-04-11T00:05:36.674Z,0.90
2023-04-11T00:08:06.784Z,0.83
2023-04-11T00:10:36.231Z,0.97
2023-04-11T00:13:10.722Z,1.20
2023-04-11T00:15:42.194Z,1.07
2023-04-11T00:18:15.620Z,1.00
2023-04-11T00:20:46.592Z,1.10
2023-04-11T00:23:16.101Z,0.93
2023-04-11T00:25:44.909Z,0.80
2023-04-11T00:28:15.675Z,0.90
2023-04-11T00:30:46.299Z,1.10
2023-04-11T00:33:19.696Z,1.00
2023-04-11T00:35:49.497Z,0.90
2023-04-11T00:38:21.008Z,1.00
2023-04-11T00:40:49.842Z,1.10
2023-04-11T00:43:19.296Z,1.00
2023-04-11T00:45:49.958Z,1.43
2023-04-11T00:48:22.233Z,1.20
2023-04-11T00:50:53.588Z,0.90
2023-04-11T00:53:25.071Z,1.00
2023-04-11T00:55:56.705Z,1.20
2023-04-11T00:58:27.140Z,1.00
2023-04-11T01:00:56.987Z,1.00
2023-04-11T01:03:29.760Z,1.27
2023-04-11T01:06:00.454Z,1.23
2023-04-11T01:08:31.933Z,1.20
2023-04-11T01:11:02.975Z,1.07
2023-04-11T01:13:45.049Z,1.30
2023-04-11T01:16:18.376Z,1.23
2023-04-11T01:18:51.125Z,1.30
2023-04-11T01:21:21.113Z,1.30
2023-04-11T01:23:53.592Z,1.13
2023-04-11T01:26:25.764Z,1.30
2023-04-11T01:28:56.657Z,1.00
2023-04-11T01:31:26.215Z,1.20
2023-04-11T01:33:57.476Z,1.30
2023-04-11T01:36:27.385Z,1.10
2023-04-11T01:38:59.973Z,1.40
2023-04-11T01:41:30.402Z,1.13
2023-04-11T01:43:59.844Z,1.27
2023-04-11T01:46:31.624Z,1.50
2023-04-11T01:49:02.893Z,1.33
2023-04-11T01:51:34.336Z,1.30
2023-04-11T01:54:12.025Z,1.50
2023-04-11T01:56:41.700Z,1.33
2023-04-11T01:59:12.218Z,1.40
2023-04-11T02:01:46.100Z,1.40
2023-04-11T02:04:16.954Z,1.43
2023-04-11T02:06:46.469Z,1.37
2023-04-11T02:09:17.787Z,1.57
2023-04-11T02:11:47.752Z,1.30
2023-04-11T02:14:18.765Z,1.70
2023-04-11T02:16:56.532Z,1.50
2023-04-11T02:19:26.547Z,1.50
2023-04-11T02:21:57.407Z,1.50
2023-04-11T02:24:31.877Z,1.40
2023-04-11T02:27:01.929Z,1.30
2023-04-11T02:29:32.865Z,1.50
2023-04-11T02:32:03.566Z,1.27
2023-04-11T02:34:34.427Z,1.60
2023-04-11T02:37:03.442Z,1.60
2023-04-11T02:39:36.080Z,1.50
2023-04-11T02:42:07.313Z,1.70
2023-04-11T02:44:38.375Z,1.60
2023-04-11T02:47:10.446Z,1.60
2023-04-11T02:49:42.995Z,1.87
2023-04-11T02:52:13.440Z,1.70
2023-04-11T02:54:46.499Z,1.67
2023-04-11T02:57:19.445Z,1.60
2023-04-11T02:59:50.231Z,1.40
2023-04-11T03:02:19.025Z,1.40
2023-04-11T03:04:50.015Z,1.67
2023-04-11T03:07:21.811Z,1.67
2023-04-11T03:09:52.931Z,1.57
2023-04-11T03:12:24.232Z,1.50
2023-04-11T03:14:53.874Z,1.50
2023-04-11T03:17:24.631Z,1.53
2023-04-11T03:19:56.071Z,1.43
2023-04-11T03:22:25.200Z,1.50
2023-04-11T03:24:56.980Z,1.60
2023-04-11T03:27:28.747Z,1.43
2023-04-11T03:29:58.785Z,1.97
2023-04-11T03:32:28.916Z,1.80
2023-04-11T03:35:01.025Z,1.60
2023-04-11T03:37:29.812Z,2.03
2023-04-11T03:40:02.506Z,1.60
2023-04-11T03:42:32.371Z,2.00
2023-04-11T03:45:01.560Z,1.70
2023-04-11T03:47:31.162Z,1.50
2023-04-11T03:50:02.854Z,1.70
2023-04-11T03:52:31.663Z,2.00
2023-04-11T03:55:03.272Z,1.70
2023-04-11T03:57:35.006Z,1.40
2023-04-11T04:00:06.206Z,1.60
2023-04-11T04:02:35.443Z,1.90
2023-04-11T04:05:08.622Z,1.50
2023-04-11T04:07:39.319Z,1.60
2023-04-11T04:10:11.070Z,1.80
2023-04-11T04:12:41.615Z,1.80
2023-04-11T04:15:17.079Z,1.70
2023-04-11T04:17:46.947Z,1.90
2023-04-11T04:20:18.480Z,1.77
2023-04-11T04:22:48.943Z,1.57
2023-04-11T04:25:20.840Z,1.50
2023-04-11T04:27:55.976Z,1.60
2023-04-11T04:30:29.381Z,1.30
2023-04-11T04:32:59.263Z,1.40
2023-04-11T04:35:30.831Z,1.60
2023-04-11T04:38:06.543Z,1.77
2023-04-11T04:40:40.982Z,1.60
2023-04-11T04:43:12.100Z,1.70
2023-04-11T04:46:14.463Z,1.67
2023-04-11T04:48:48.041Z,1.60
2023-04-11T04:51:17.443Z,1.83
2023-04-11T04:53:47.849Z,1.50
2023-04-11T04:56:20.300Z,1.63
2023-04-11T04:58:52.965Z,1.70
2023-04-11T05:01:27.286Z,1.60
2023-04-11T05:04:01.125Z,1.43
2023-04-11T05:06:33.505Z,1.50
2023-04-11T05:09:03.156Z,1.70
2023-04-11T05:11:34.936Z,1.80
2023-04-11T05:14:05.164Z,1.60
2023-04-11T05:16:34.423Z,1.80
2023-04-11T05:19:05.975Z,1.80
2023-04-11T05:21:35.464Z,1.50
2023-04-11T05:24:04.520Z,1.63
2023-04-11T05:26:39.659Z,1.53
2023-04-11T05:29:09.137Z,1.63
2023-04-11T05:31:40.471Z,1.77
2023-04-11T05:34:10.365Z,1.90
2023-04-11T05:36:40.772Z,1.87
2023-04-11T05:39:13.187Z,1.70
2023-04-11T05:41:45.732Z,2.00
2023-04-11T05:44:14.741Z,1.60
2023-04-11T05:46:47.948Z,1.60
2023-04-11T05:49:17.184Z,1.70
2023-04-11T05:51:48.068Z,1.50
2023-04-11T05:54:35.562Z,1.50
2023-04-11T05:57:07.806Z,1.87
2023-04-11T05:59:38.692Z,1.83
2023-04-11T06:02:10.468Z,1.80
2023-04-11T06:04:39.810Z,1.80
2023-04-11T06:07:09.296Z,1.70
2023-04-11T06:09:39.489Z,1.60
2023-04-11T06:12:11.858Z,1.60
2023-04-11T06:14:40.744Z,1.87
2023-04-11T06:17:11.853Z,1.80
2023-04-11T06:19:43.269Z,1.63
2023-04-11T06:22:13.639Z,1.80
2023-04-11T06:24:45.763Z,1.90
2023-04-11T06:27:17.696Z,1.80
2023-04-11T06:29:49.166Z,1.70
2023-04-11T06:32:20.358Z,1.60
2023-04-11T06:34:51.856Z,2.00
2023-04-11T06:37:24.985Z,1.80
2023-04-11T06:39:54.918Z,1.90
2023-04-11T06:42:27.793Z,1.93
2023-04-11T06:45:00.294Z,2.10
2023-04-11T06:47:30.837Z,1.90
2023-04-11T06:50:29.112Z,2.20
2023-04-11T06:53:01.820Z,1.90
2023-04-11T06:55:32.066Z,2.00
2023-04-11T06:58:02.534Z,2.30
2023-04-11T07:00:32.703Z,1.80
2023-04-11T07:03:08.736Z,2.27
2023-04-11T07:05:39.676Z,2.10
2023-04-11T07:08:09.034Z,1.90
2023-04-11T07:10:39.974Z,2.10
2023-04-11T07:13:11.205Z,2.60
2023-04-11T07:15:40.642Z,2.20
2023-04-11T07:18:13.114Z,2.40
2023-04-11T07:20:43.331Z,2.20
2023-04-11T07:23:13.175Z,2.37
2023-04-11T07:25:45.412Z,2.23
2023-04-11T07:28:17.109Z,2.20
2023-04-11T07:30:46.825Z,2.20
2023-04-11T07:33:19.727Z,2.23
2023-04-11T07:35:49.956Z,2.27
2023-04-11T07:38:27.638Z,2.37
2023-04-11T07:40:56.683Z,2.70
2023-04-11T07:43:31.666Z,2.40
2023-04-11T07:46:02.224Z,2.20
2023-04-11T07:48:34.825Z,2.33
2023-04-11T07:51:04.178Z,2.77
2023-04-11T07:53:35.678Z,2.30
2023-04-11T07:56:05.252Z,2.77
2023-04-11T07:58:37.342Z,2.70
2023-04-11T08:01:09.148Z,2.60
2023-04-11T08:03:41.693Z,2.53
2023-04-11T08:06:14.212Z,2.53
2023-04-11T08:08:44.974Z,2.60
2023-04-11T08:11:15.927Z,2.60
2023-04-11T08:13:49.586Z,2.37
2023-04-11T08:16:22.355Z,2.70
2023-04-11T08:18:52.552Z,2.50
2023-04-11T08:21:24.303Z,2.73
2023-04-11T08:23:53.329Z,2.67
2023-04-11T08:26:23.505Z,2.30
2023-04-11T08:28:55.585Z,2.77
2023-04-11T08:31:26.918Z,2.73
2023-04-11T08:34:00.060Z,2.60
2023-04-11T08:36:33.623Z,2.60
2023-04-11T08:39:03.148Z,3.00
2023-04-11T08:41:33.932Z,2.80
2023-04-11T08:44:04.473Z,3.83
2023-04-11T08:46:35.076Z,4.43
2023-04-11T08:49:04.803Z,4.83
2023-04-11T08:51:34.772Z,4.40
2023-04-11T08:54:07.072Z,4.30
2023-04-11T08:56:36.608Z,3.80
2023-04-11T08:59:07.799Z,3.27
2023-04-11T09:01:41.121Z,3.20
2023-04-11T09:04:11.861Z,3.17
2023-04-11T09:06:44.245Z,3.17
2023-04-11T09:09:30.354Z,2.97
2023-04-11T09:12:01.768Z,2.80
2023-04-11T09:14:34.315Z,2.90
2023-04-11T09:17:05.033Z,2.77
2023-04-11T09:19:37.285Z,2.60
2023-04-11T09:22:09.626Z,3.20
2023-04-11T09:24:40.969Z,2.70
2023-04-11T09:27:13.081Z,2.80
2023-04-11T09:29:45.759Z,2.80
2023-04-11T09:32:34.271Z,3.00
2023-04-11T09:35:18.712Z,2.67
2023-04-11T09:37:50.076Z,2.90
2023-04-11T09:40:22.840Z,3.13
2023-04-11T09:43:00.104Z,2.90
2023-04-11T09:45:38.191Z,2.80
2023-04-11T09:48:09.128Z,3.17
2023-04-11T09:50:40.260Z,3.30
2023-04-11T09:53:10.165Z,3.20
2023-04-11T09:55:41.220Z,3.03
2023-04-11T09:58:16.209Z,3.83
2023-04-11T10:00:47.685Z,3.23
2023-04-11T10:03:18.776Z,3.17
2023-04-11T10:05:50.180Z,3.10
2023-04-11T10:08:27.107Z,3.30
2023-04-11T10:10:57.538Z,2.80
2023-04-11T10:13:41.009Z,3.13
2023-04-11T10:16:12.655Z,2.97
2023-04-11T10:19:09.719Z,3.17
2023-04-11T10:21:47.252Z,3.10
2023-04-11T10:24:19.114Z,3.70
2023-04-11T10:26:50.131Z,3.10
2023-04-11T10:29:42.823Z,3.13
2023-04-11T10:32:12.820Z,3.40
2023-04-11T10:35:06.337Z,3.43
2023-04-11T10:37:38.254Z,3.20
2023-04-11T10:40:15.595Z,3.70
2023-04-11T10:42:46.215Z,3.40
2023-04-11T10:45:16.450Z,3.40
2023-04-11T10:47:46.765Z,3.43
2023-04-11T10:50:35.019Z,4.00
2023-04-11T10:53:09.406Z,3.60
2023-04-11T10:55:47.333Z,3.70
2023-04-11T10:58:20.432Z,4.07
2023-04-11T11:01:26.510Z,3.60
2023-04-11T11:04:09.831Z,3.87
2023-04-11T11:06:47.233Z,3.60
2023-04-11T11:09:26.916Z,3.90
2023-04-11T11:12:15.184Z,4.20
2023-04-11T11:14:48.846Z,4.20
2023-04-11T11:17:22.289Z,3.90
2023-04-11T11:19:52.559Z,4.20
2023-04-11T11:22:26.469Z,4.23
2023-04-11T11:25:09.976Z,4.20
2023-04-11T11:27:40.455Z,3.87
2023-04-11T11:30:14.386Z,4.57
2023-04-11T11:32:45.187Z,3.53
2023-04-11T11:35:17.623Z,4.20
2023-04-11T11:37:52.148Z,4.07
2023-04-11T11:40:26.188Z,4.17
2023-04-11T11:42:56.512Z,4.00
2023-04-11T11:48:03.694Z,4.10
2023-04-11T11:50:34.896Z,4.07
2023-04-11T11:53:16.459Z,4.03
2023-04-11T11:55:47.503Z,4.47
2023-04-11T11:58:20.928Z,4.13
2023-04-11T12:00:53.686Z,4.17
2023-04-11T12:03:25.004Z,4.77
2023-04-11T12:05:58.635Z,4.20
2023-04-11T12:08:29.605Z,4.23
2023-04-11T12:11:04.667Z,4.27
2023-04-11T12:13:34.688Z,4.80
2023-04-11T12:16:03.869Z,4.57
2023-04-11T12:18:33.676Z,4.47
2023-04-11T12:21:04.239Z,4.23
2023-04-11T12:23:34.779Z,4.80
2023-04-11T12:26:06.649Z,4.73
2023-04-11T12:28:38.086Z,4.67
2023-04-11T12:31:08.610Z,4.43
2023-04-11T12:33:41.192Z,4.83
2023-04-11T12:36:10.762Z,5.40
2023-04-11T12:38:42.652Z,4.50
2023-04-11T12:41:31.007Z,4.80
2023-04-11T12:44:05.858Z,4.63
2023-04-11T12:46:36.915Z,5.10
2023-04-11T12:49:08.084Z,5.00
2023-04-11T12:51:39.902Z,4.80
2023-04-11T12:54:11.147Z,4.43
2023-04-11T12:56:43.987Z,4.60
2023-04-11T12:59:17.145Z,5.10
2023-04-11T13:01:49.287Z,4.93
2023-04-11T13:04:20.228Z,5.03
2023-04-11T13:06:49.348Z,4.80
2023-04-11T13:09:20.115Z,5.23
2023-04-11T13:11:50.890Z,4.67
2023-04-11T13:14:21.176Z,5.10
2023-04-11T13:16:50.671Z,5.03
2023-04-11T13:19:20.514Z,5.13
2023-04-11T13:21:53.172Z,5.10
2023-04-11T13:24:25.030Z,4.97
2023-04-11T13:26:58.524Z,5.67
2023-04-11T13:29:27.480Z,5.27
2023-04-11T13:31:57.875Z,5.73
2023-04-11T13:34:29.801Z,5.30
2023-04-11T13:37:00.262Z,5.37
2023-04-11T13:39:31.808Z,5.63
2023-04-11T13:42:03.460Z,5.70
2023-04-11T13:44:34.729Z,5.43
2023-04-11T13:47:05.752Z,5.63
2023-04-11T13:49:37.230Z,5.60
2023-04-11T13:52:31.414Z,5.67
2023-04-11T13:55:08.285Z,5.57
2023-04-11T13:57:39.273Z,5.97
2023-04-11T14:00:12.646Z,6.03
2023-04-11T14:02:43.055Z,5.43
2023-04-11T14:05:14.563Z,5.60
2023-04-11T14:07:44.448Z,5.93
2023-04-11T14:10:16.761Z,6.17
2023-04-11T14:12:50.189Z,5.80
2023-04-11T14:15:21.997Z,5.30
2023-04-11T14:17:53.553Z,5.33
2023-04-11T14:20:24.308Z,5.27
2023-04-11T14:22:54.420Z,5.60
2023-04-11T14:25:23.927Z,6.10
2023-04-11T14:27:57.073Z,5.50
2023-04-11T14:30:27.133Z,5.57
2023-04-11T14:32:58.199Z,5.50
2023-04-11T14:35:29.847Z,6.10
2023-04-11T14:37:59.464Z,6.10
2023-04-11T14:40:33.634Z,5.53
2023-04-11T14:43:07.708Z,6.27
2023-04-11T14:45:40.568Z,6.03
2023-04-11T14:48:13.023Z,6.40
2023-04-11T14:50:42.770Z,6.73
2023-04-11T14:53:13.582Z,7.00
2023-04-11T14:55:47.661Z,6.40
2023-04-11T14:58:20.073Z,6.60
2023-04-11T15:00:50.947Z,6.40
2023-04-11T15:03:21.631Z,6.90
2023-04-11T15:05:52.181Z,6.57
2023-04-11T15:08:21.377Z,6.80
2023-04-11T15:10:56.131Z,6.77
2023-04-11T15:13:27.177Z,6.67
2023-04-11T15:16:03.097Z,7.40
2023-04-11T15:18:33.947Z,7.20
2023-04-11T15:21:05.581Z,6.87
2023-04-11T15:23:35.606Z,6.97
2023-04-11T15:26:07.158Z,7.10
2023-04-11T15:28:39.632Z,7.40
2023-04-11T15:31:12.066Z,6.77
2023-04-11T15:33:43.482Z,6.93
2023-04-11T15:36:14.117Z,7.00
2023-04-11T15:38:44.868Z,7.30
2023-04-11T15:41:14.168Z,6.83
2023-04-11T15:43:47.352Z,7.37
2023-04-11T15:46:19.850Z,7.20
2023-04-11T15:48:51.156Z,6.73
2023-04-11T15:51:21.454Z,7.10
2023-04-11T15:53:50.484Z,7.20
2023-04-11T15:56:21.093Z,6.77
2023-04-11T15:58:53.463Z,6.37
2023-04-11T16:01:27.140Z,7.07
2023-04-11T16:03:56.738Z,6.27
2023-04-11T16:06:27.844Z,6.63
2023-04-11T16:08:58.720Z,6.73
2023-04-11T16:11:28.970Z,6.20
2023-04-11T16:14:01.802Z,6.47
2023-04-11T16:16:31.405Z,6.77
2023-04-11T16:19:03.935Z,6.93
2023-04-11T16:21:36.358Z,6.40
2023-04-11T16:24:06.576Z,6.40
2023-04-11T16:26:39.997Z,6.40
2023-04-11T16:29:13.961Z,6.80
2023-04-11T16:31:47.909Z,6.17
2023-04-11T16:34:20.813Z,6.00
2023-04-11T16:36:51.951Z,6.30
2023-04-11T16:39:29.363Z,6.20
2023-04-11T16:42:03.311Z,5.50
2023-04-11T16:44:34.995Z,5.87
2023-04-11T16:47:08.244Z,5.93
2023-04-11T16:49:41.927Z,6.27
2023-04-11T16:52:12.564Z,5.73
2023-04-11T16:54:41.969Z,5.90
2023-04-11T16:57:17.683Z,5.97
2023-04-11T16:59:51.188Z,5.70
2023-04-11T17:02:39.761Z,5.97
2023-04-11T17:05:12.756Z,5.50
2023-04-11T17:07:45.740Z,5.43
2023-04-11T17:10:24.131Z,5.80
2023-04-11T17:12:57.625Z,5.60
2023-04-11T17:15:30.755Z,5.90
2023-04-11T17:18:03.414Z,6.77
2023-04-11T17:20:35.234Z,5.67
2023-04-11T17:23:05.162Z,4.57
2023-04-11T17:25:34.117Z,5.30
2023-04-11T17:28:15.557Z,3.97
2023-04-11T17:30:52.752Z,3.17
2023-04-11T17:33:25.121Z,3.10
2023-04-11T17:35:55.215Z,2.70
2023-04-11T17:38:24.849Z,2.57
2023-04-11T17:41:00.253Z,2.73
2023-04-11T17:44:13.471Z,2.60
2023-04-11T17:46:52.781Z,2.47
2023-04-11T17:49:26.567Z,1.80
2023-04-11T17:51:59.641Z,2.13
2023-04-11T17:54:30.792Z,1.70
2023-04-11T17:57:02.623Z,1.63
2023-04-11T17:59:34.116Z,1.70
2023-04-11T18:02:09.335Z,1.67
2023-04-11T18:04:43.229Z,1.47
2023-04-11T18:07:14.918Z,1.60
2023-04-11T18:09:43.977Z,1.50
2023-04-11T18:12:20.964Z,1.47
2023-04-11T18:15:00.458Z,1.27
2023-04-11T18:17:36.414Z,1.27
2023-04-11T18:20:12.015Z,1.23
2023-04-11T18:22:41.664Z,1.17
2023-04-11T18:25:14.248Z,1.30
2023-04-11T18:27:46.910Z,1.20
2023-04-11T18:30:19.287Z,1.10
2023-04-11T18:32:54.841Z,1.20
2023-04-11T18:35:26.244Z,1.20
2023-04-11T18:38:00.318Z,1.60
2023-04-11T18:40:33.934Z,1.00
2023-04-11T18:43:05.763Z,0.97
2023-04-11T18:45:37.041Z,1.23
2023-04-11T18:48:09.635Z,1.77
2023-04-11T18:50:43.181Z,1.37
2023-04-11T18:53:15.097Z,1.10
2023-04-11T18:55:45.998Z,1.30
2023-04-11T18:58:38.870Z,1.20
2023-04-11T19:01:16.895Z,1.10
2023-04-11T19:03:51.955Z,1.20
2023-04-11T19:06:26.665Z,1.17
2023-04-11T19:08:58.473Z,1.23
2023-04-11T19:11:32.724Z,1.27
2023-04-11T19:14:12.593Z,1.23
2023-04-11T19:16:46.776Z,4.20
2023-04-11T19:19:20.675Z,1.30
2023-04-11T19:21:51.965Z,1.07
2023-04-11T19:24:24.405Z,1.30
2023-04-11T19:26:56.841Z,1.30
2023-04-11T19:29:44.201Z,1.43
2023-04-11T19:32:36.951Z,1.37
2023-04-11T19:35:42.351Z,1.40
2023-04-11T19:38:16.677Z,1.40
2023-04-11T19:40:46.372Z,1.30
2023-04-11T19:43:17.198Z,1.20
2023-04-11T19:45:49.436Z,1.60
2023-04-11T19:48:20.628Z,1.40
2023-04-11T19:50:54.277Z,1.10
2023-04-11T19:53:27.274Z,1.53
2023-04-11T19:56:01.827Z,1.30
2023-04-11T19:58:34.147Z,0.90
2023-04-11T20:01:11.943Z,1.30
2023-04-11T20:03:44.577Z,1.23
2023-04-11T20:06:18.919Z,1.30
2023-04-11T20:08:52.002Z,1.30
2023-04-11T20:11:23.705Z,2.50
2023-04-11T20:13:55.832Z,1.07
2023-04-11T20:16:28.127Z,1.33
2023-04-11T20:19:04.116Z,0.93
2023-04-11T20:21:35.357Z,1.00
2023-04-11T20:24:07.206Z,1.20
2023-04-11T20:26:39.580Z,3.73
2023-04-11T20:29:15.957Z,0.90
2023-04-11T20:31:45.186Z,1.10
2023-04-11T20:34:15.871Z,1.10
2023-04-11T20:36:56.875Z,2.27
2023-04-11T20:39:29.039Z,1.23
2023-04-11T20:42:02.953Z,1.20
2023-04-11T20:44:34.989Z,1.00
2023-04-11T20:47:10.297Z,1.50
2023-04-11T20:49:42.580Z,1.30
2023-04-11T20:52:14.598Z,2.00
2023-04-11T20:54:47.898Z,1.40
2023-04-11T20:57:19.163Z,1.00
2023-04-11T20:59:51.858Z,1.10
2023-04-11T21:02:21.171Z,1.37
2023-04-11T21:04:53.865Z,1.40
2023-04-11T21:07:25.316Z,1.70
2023-04-11T21:09:56.917Z,1.53
2023-04-11T21:12:31.164Z,4.57
2023-04-11T21:15:03.499Z,1.10
2023-04-11T21:17:33.609Z,1.97
2023-04-11T21:20:09.011Z,3.20
2023-04-11T21:22:43.083Z,0.93
2023-04-11T21:25:13.335Z,0.97
2023-04-11T21:27:43.498Z,0.83
2023-04-11T21:30:15.573Z,1.00
2023-04-11T21:32:47.204Z,3.77
2023-04-11T21:35:16.239Z,1.13
2023-04-11T21:37:58.195Z,0.97
2023-04-11T21:40:36.041Z,0.93
2023-04-11T21:43:12.351Z,1.60
2023-04-11T21:45:50.260Z,1.10
2023-04-11T21:48:20.360Z,1.10
2023-04-11T21:50:51.001Z,1.27
2023-04-11T21:53:25.130Z,1.60
2023-04-11T21:55:59.957Z,1.00
2023-04-11T21:58:48.976Z,1.13
2023-04-11T22:01:44.655Z,1.20
2023-04-11T22:04:51.702Z,1.20
2023-04-11T22:07:38.261Z,4.40
2023-04-11T22:10:47.356Z,5.23
2023-04-11T22:13:31.745Z,3.30
2023-04-11T22:16:14.384Z,1.60
2023-04-11T22:19:07.032Z,1.47
2023-04-11T22:22:09.381Z,2.30
2023-04-11T22:24:43.999Z,1.47
2023-04-11T22:27:19.466Z,1.33
2023-04-11T22:29:50.297Z,1.50
2023-04-11T22:32:25.619Z,2.00
2023-04-11T22:34:55.644Z,3.53
2023-04-11T22:37:27.958Z,1.60
2023-04-11T22:40:03.186Z,1.50
2023-04-11T22:42:36.701Z,1.33
2023-04-11T22:45:07.949Z,1.73
2023-04-11T22:47:48.010Z,1.10
2023-04-11T22:50:20.874Z,2.60
2023-04-11T22:52:52.545Z,2.10
2023-04-11T22:55:44.115Z,2.77
2023-04-11T22:58:51.988Z,1.90
2023-04-11T23:01:27.274Z,3.20
2023-04-11T23:03:58.283Z,2.53
2023-04-11T23:06:52.751Z,2.30
2023-04-11T23:09:54.161Z,2.50
2023-04-11T23:12:25.189Z,2.00
2023-04-11T23:15:27.242Z,1.33
2023-04-11T23:17:59.493Z,1.23
2023-04-11T23:20:51.755Z,1.27
2023-04-11T23:23:33.041Z,1.30
2023-04-11T23:26:26.972Z,1.40
2023-04-11T23:28:58.335Z,1.10
2023-04-11T23:31:50.290Z,1.43
2023-04-11T23:34:24.143Z,1.83
2023-04-11T23:36:53.192Z,1.90
2023-04-11T23:39:36.627Z,1.47
2023-04-11T23:42:08.367Z,1.80
2023-04-11T23:44:43.524Z,1.50
2023-04-11T23:47:19.671Z,1.30
2023-04-11T23:49:49.607Z,1.53
2023-04-11T23:52:23.632Z,1.30
2023-04-11T23:54:56.865Z,1.57
2023-04-11T23:57:26.805Z,1.50
